Grandeur Of The Seas — C6SE3 — position and weather

sailwx.info

Track history (hours):
 
Tides and Currents Weather Stations Pressure Air Temp Water Temp Dewpoint Dewpoint Depression Visibility Wind Speed Wind Dir Waves Ship Positions

Grandeur Of The Seas

Operator: Royal Caribbean Cruises Ltd

Last reported at 2016-Feb-07 16:34 UTC. Time now 2016-Feb-07 17:26 UTC.
Position N 18°31' W 066°08'.

Type: Passenger vessel. MMSI: 311315000.

Date/timePositionNaut miles runAvg speedWind from/ knotsBaromVisibWave heightAir tempDewpointWater temp
2016-Feb-07 16:34N 18°31' W 066°08'  
2016-Feb-05 11:00N 27°42' W 073°30'56020.1 200 / 111080.0 5.4 22.014.025.0
2016-Feb-04 07:10N 36°49' W 075°48'610.0
2016-Feb-04 06:33N 36°53' W 075°54'1111.3
2016-Feb-04 05:33N 37°01' W 076°03'7717.8
2016-Feb-04 01:15N 38°17' W 076°17'1318.6
2016-Feb-04 00:33N 38°29' W 076°24'1918.5
2016-Feb-03 23:33N 38°48' W 076°25'1717.2
2016-Feb-03 22:33N 39°05' W 076°24'1212.5
2016-Feb-03 21:33N 39°15' W 076°34'2 0.9
2016-Feb-03 19:10N 39°16' W 076°36'0 0.0
2016-Feb-03 18:25N 39°16' W 076°36'0 0.0
2016-Feb-03 17:25N 39°16' W 076°36'0 0.0
2016-Feb-03 16:25N 39°16' W 076°36'0 0.0
2016-Feb-03 14:25N 39°16' W 076°36'0 0.0
2016-Feb-03 13:13N 39°16' W 076°36'0 0.0
2016-Feb-03 12:25N 39°16' W 076°36'0 0.0
2016-Feb-03 11:10N 39°16' W 076°36'1 1.9
2016-Feb-03 10:26N 39°15' W 076°34'8 9.0
2016-Feb-03 09:32N 39°10' W 076°26'1111.1
2016-Feb-03 08:33N 38°60' W 076°23'1514.4
2016-Feb-03 07:29N 38°45' W 076°26'1414.8
2016-Feb-03 06:33N 38°31' W 076°24'1716.1
2016-Feb-03 05:31N 38°15' W 076°16'1516.1
2016-Feb-03 04:33N 38°00' W 076°12'6215.5
2016-Feb-03 00:33N 36°59' W 076°00'1010.0
2016-Feb-02 23:31N 36°52' W 075°51'  
2016-Jan-31 05:00N 20°18' W 066°06'104 3.9 090 / 141017.510.8 25.022.228.0
2016-Jan-30 02:29N 18°34' W 066°05'7 6.9
2016-Jan-30 01:31N 18°28' W 066°07'0 0.0
2016-Jan-30 00:31N 18°28' W 066°07'0 0.0
2016-Jan-29 23:28N 18°28' W 066°07'0 0.0
2016-Jan-29 22:31N 18°28' W 066°07'0 0.0
2016-Jan-29 21:28N 18°28' W 066°07'0 0.0
2016-Jan-29 20:31N 18°28' W 066°07'0 0.0
2016-Jan-29 19:31N 18°28' W 066°07'0 0.0
2016-Jan-29 18:31N 18°28' W 066°07'0 0.0
2016-Jan-29 17:28N 18°28' W 066°07'1 0.9
2016-Jan-29 16:33N 18°28' W 066°08'18517.5
2016-Jan-29 06:00N 19°30' W 069°12'   180 / 151014.410.8 25.020.728.3
Track history (hours):
 
Tides and Currents Weather Stations Pressure Air Temp Water Temp Dewpoint Dewpoint Depression Visibility Wind Speed Wind Dir Waves Ship Positions

Grandeur Of The Seas

Operator: Royal Caribbean Cruises Ltd

Last reported at 2016-Feb-07 16:34 UTC. Time now 2016-Feb-07 17:26 UTC.
Position N 18°31' W 066°08'.

Type: Passenger vessel. MMSI: 311315000.

Date/timePositionNaut miles runAvg speedWind from/ knotsBaromVisibWave heightAir tempDewpointWater temp
2016-Feb-07 16:34N 18°31' W 066°08'  
2016-Feb-05 11:00N 27°42' W 073°30'56020.1 200 / 111080.0 5.4 22.014.025.0
2016-Feb-04 07:10N 36°49' W 075°48'610.0
2016-Feb-04 06:33N 36°53' W 075°54'1111.3
2016-Feb-04 05:33N 37°01' W 076°03'7717.8
2016-Feb-04 01:15N 38°17' W 076°17'1318.6
2016-Feb-04 00:33N 38°29' W 076°24'1918.5
2016-Feb-03 23:33N 38°48' W 076°25'1717.2
2016-Feb-03 22:33N 39°05' W 076°24'1212.5
2016-Feb-03 21:33N 39°15' W 076°34'2 0.9
2016-Feb-03 19:10N 39°16' W 076°36'0 0.0
2016-Feb-03 18:25N 39°16' W 076°36'0 0.0
2016-Feb-03 17:25N 39°16' W 076°36'0 0.0
2016-Feb-03 16:25N 39°16' W 076°36'0 0.0
2016-Feb-03 14:25N 39°16' W 076°36'0 0.0
2016-Feb-03 13:13N 39°16' W 076°36'0 0.0
2016-Feb-03 12:25N 39°16' W 076°36'0 0.0
2016-Feb-03 11:10N 39°16' W 076°36'1 1.9
2016-Feb-03 10:26N 39°15' W 076°34'8 9.0
2016-Feb-03 09:32N 39°10' W 076°26'1111.1
2016-Feb-03 08:33N 38°60' W 076°23'1514.4
2016-Feb-03 07:29N 38°45' W 076°26'1414.8
2016-Feb-03 06:33N 38°31' W 076°24'1716.1
2016-Feb-03 05:31N 38°15' W 076°16'1516.1
2016-Feb-03 04:33N 38°00' W 076°12'6215.5
2016-Feb-03 00:33N 36°59' W 076°00'1010.0
2016-Feb-02 23:31N 36°52' W 075°51'  
2016-Jan-31 05:00N 20°18' W 066°06'104 3.9 090 / 141017.510.8 25.022.228.0
2016-Jan-30 02:29N 18°34' W 066°05'7 6.9
2016-Jan-30 01:31N 18°28' W 066°07'0 0.0
2016-Jan-30 00:31N 18°28' W 066°07'0 0.0
2016-Jan-29 23:28N 18°28' W 066°07'0 0.0
2016-Jan-29 22:31N 18°28' W 066°07'0 0.0
2016-Jan-29 21:28N 18°28' W 066°07'0 0.0
2016-Jan-29 20:31N 18°28' W 066°07'0 0.0
2016-Jan-29 19:31N 18°28' W 066°07'0 0.0
2016-Jan-29 18:31N 18°28' W 066°07'0 0.0
2016-Jan-29 17:28N 18°28' W 066°07'1 0.9
2016-Jan-29 16:33N 18°28' W 066°08'18517.5
2016-Jan-29 06:00N 19°30' W 069°12'   180 / 151014.410.8 25.020.728.3

Dump ship's entire track history